sensor_id;sensor_type;location;lat;lon;timestamp;temperature;humidity
610;DHT22;292;48.800;9.216;2023-07-30T00:00:14;21.20;87.50
610;DHT22;292;48.800;9.216;2023-07-30T00:02:41;21.10;87.40
610;DHT22;292;48.800;9.216;2023-07-30T00:05:08;21.10;87.00
610;DHT22;292;48.800;9.216;2023-07-30T00:07:35;21.10;87.00
610;DHT22;292;48.800;9.216;2023-07-30T00:10:02;21.00;87.30
610;DHT22;292;48.800;9.216;2023-07-30T00:12:29;21.00;87.30
610;DHT22;292;48.800;9.216;2023-07-30T00:14:58;21.00;87.30
610;DHT22;292;48.800;9.216;2023-07-30T00:17:25;21.00;87.10
610;DHT22;292;48.800;9.216;2023-07-30T00:19:52;21.00;87.00
610;DHT22;292;48.800;9.216;2023-07-30T00:22:19;21.00;86.50
610;DHT22;292;48.800;9.216;2023-07-30T00:24:46;21.00;86.40
610;DHT22;292;48.800;9.216;2023-07-30T00:27:13;20.90;86.10
610;DHT22;292;48.800;9.216;2023-07-30T00:29:40;20.90;86.00
610;DHT22;292;48.800;9.216;2023-07-30T00:32:09;20.80;85.70
610;DHT22;292;48.800;9.216;2023-07-30T00:34:37;20.80;85.70
610;DHT22;292;48.800;9.216;2023-07-30T00:37:04;20.70;85.80
610;DHT22;292;48.800;9.216;2023-07-30T00:39:31;20.70;85.80
610;DHT22;292;48.800;9.216;2023-07-30T00:41:58;20.70;86.00
610;DHT22;292;48.800;9.216;2023-07-30T00:44:26;20.70;85.70
610;DHT22;292;48.800;9.216;2023-07-30T00:46:52;20.70;85.80
610;DHT22;292;48.800;9.216;2023-07-30T00:49:21;20.70;85.70
610;DHT22;292;48.800;9.216;2023-07-30T00:51:48;20.70;85.50
610;DHT22;292;48.800;9.216;2023-07-30T00:54:15;20.60;85.50
610;DHT22;292;48.800;9.216;2023-07-30T00:56:47;20.60;85.50
610;DHT22;292;48.800;9.216;2023-07-30T00:59:16;20.60;85.50
610;DHT22;292;48.800;9.216;2023-07-30T01:01:44;20.60;85.70
610;DHT22;292;48.800;9.216;2023-07-30T01:04:13;20.60;85.70
610;DHT22;292;48.800;9.216;2023-07-30T01:06:42;20.60;85.80
610;DHT22;292;48.800;9.216;2023-07-30T01:09:09;20.60;86.00
610;DHT22;292;48.800;9.216;2023-07-30T01:11:37;20.60;86.20
610;DHT22;292;48.800;9.216;2023-07-30T01:14:05;20.60;86.40
610;DHT22;292;48.800;9.216;2023-07-30T01:16:32;20.60;86.50
610;DHT22;292;48.800;9.216;2023-07-30T01:18:59;20.60;86.80
610;DHT22;292;48.800;9.216;2023-07-30T01:21:32;20.60;87.10
610;DHT22;292;48.800;9.216;2023-07-30T01:23:59;20.70;87.40
610;DHT22;292;48.800;9.216;2023-07-30T01:26:32;20.70;87.40
610;DHT22;292;48.800;9.216;2023-07-30T01:29:01;20.70;87.50
610;DHT22;292;48.800;9.216;2023-07-30T01:31:31;20.70;87.70
610;DHT22;292;48.800;9.216;2023-07-30T01:34:00;20.80;87.80
610;DHT22;292;48.800;9.216;2023-07-30T01:36:32;20.80;88.00
610;DHT22;292;48.800;9.216;2023-07-30T01:39:00;20.80;88.10
610;DHT22;292;48.800;9.216;2023-07-30T01:41:27;20.90;88.10
610;DHT22;292;48.800;9.216;2023-07-30T01:43:55;20.90;88.10
610;DHT22;292;48.800;9.216;2023-07-30T01:46:23;20.90;88.10
610;DHT22;292;48.800;9.216;2023-07-30T01:48:50;20.90;88.10
610;DHT22;292;48.800;9.216;2023-07-30T01:51:17;21.00;88.10
610;DHT22;292;48.800;9.216;2023-07-30T01:53:46;21.00;88.10
610;DHT22;292;48.800;9.216;2023-07-30T01:56:13;21.00;88.30
610;DHT22;292;48.800;9.216;2023-07-30T01:58:40;21.00;88.30
610;DHT22;292;48.800;9.216;2023-07-30T02:01:07;21.10;88.40
610;DHT22;292;48.800;9.216;2023-07-30T02:03:34;21.10;88.40
610;DHT22;292;48.800;9.216;2023-07-30T02:06:01;21.10;88.40
610;DHT22;292;48.800;9.216;2023-07-30T02:08:28;21.10;88.40
610;DHT22;292;48.800;9.216;2023-07-30T02:10:57;21.10;88.10
610;DHT22;292;48.800;9.216;2023-07-30T02:13:25;21.10;88.30
610;DHT22;292;48.800;9.216;2023-07-30T02:15:52;21.10;88.10
610;DHT22;292;48.800;9.216;2023-07-30T02:18:19;21.20;88.30
610;DHT22;292;48.800;9.216;2023-07-30T02:20:46;21.20;88.10
610;DHT22;292;48.800;9.216;2023-07-30T02:23:15;21.20;88.00
610;DHT22;292;48.800;9.216;2023-07-30T02:25:42;21.20;88.00
610;DHT22;292;48.800;9.216;2023-07-30T02:28:11;21.20;88.30
610;DHT22;292;48.800;9.216;2023-07-30T02:30:38;21.20;88.10
610;DHT22;292;48.800;9.216;2023-07-30T02:33:05;21.20;88.30
610;DHT22;292;48.800;9.216;2023-07-30T02:35:32;21.20;88.60
610;DHT22;292;48.800;9.216;2023-07-30T02:37:59;21.20;88.60
610;DHT22;292;48.800;9.216;2023-07-30T02:40:26;21.20;88.60
610;DHT22;292;48.800;9.216;2023-07-30T02:42:53;21.20;88.40
610;DHT22;292;48.800;9.216;2023-07-30T02:45:21;21.20;88.40
610;DHT22;292;48.800;9.216;2023-07-30T02:47:51;21.20;88.40
610;DHT22;292;48.800;9.216;2023-07-30T02:50:18;21.10;88.60
610;DHT22;292;48.800;9.216;2023-07-30T02:52:45;21.10;88.70
610;DHT22;292;48.800;9.216;2023-07-30T02:55:12;21.10;88.70
610;DHT22;292;48.800;9.216;2023-07-30T02:57:41;21.10;88.80
610;DHT22;292;48.800;9.216;2023-07-30T03:00:08;21.10;88.80
610;DHT22;292;48.800;9.216;2023-07-30T03:02:38;21.10;89.00
610;DHT22;292;48.800;9.216;2023-07-30T03:05:05;21.10;89.10
610;DHT22;292;48.800;9.216;2023-07-30T03:07:32;21.10;89.30
610;DHT22;292;48.800;9.216;2023-07-30T03:09:59;21.10;89.40
610;DHT22;292;48.800;9.216;2023-07-30T03:12:26;21.20;89.60
610;DHT22;292;48.800;9.216;2023-07-30T03:14:53;21.20;89.40
610;DHT22;292;48.800;9.216;2023-07-30T03:17:20;21.20;89.40
610;DHT22;292;48.800;9.216;2023-07-30T03:19:49;21.20;89.40
610;DHT22;292;48.800;9.216;2023-07-30T03:22:16;21.20;89.40
610;DHT22;292;48.800;9.216;2023-07-30T03:24:43;21.20;89.30
610;DHT22;292;48.800;9.216;2023-07-30T03:27:12;21.20;89.30
610;DHT22;292;48.800;9.216;2023-07-30T03:29:39;21.20;89.00
610;DHT22;292;48.800;9.216;2023-07-30T03:32:06;21.20;88.60
610;DHT22;292;48.800;9.216;2023-07-30T03:34:33;21.20;88.40
610;DHT22;292;48.800;9.216;2023-07-30T03:37:02;21.20;88.10
610;DHT22;292;48.800;9.216;2023-07-30T03:39:29;21.10;88.00
610;DHT22;292;48.800;9.216;2023-07-30T03:41:56;21.10;87.70
610;DHT22;292;48.800;9.216;2023-07-30T03:44:23;21.10;88.00
610;DHT22;292;48.800;9.216;2023-07-30T03:46:50;21.00;88.00
610;DHT22;292;48.800;9.216;2023-07-30T03:49:17;21.00;88.30
610;DHT22;292;48.800;9.216;2023-07-30T03:51:44;21.00;88.60
610;DHT22;292;48.800;9.216;2023-07-30T03:54:12;21.00;88.60
610;DHT22;292;48.800;9.216;2023-07-30T03:56:39;21.00;88.40
610;DHT22;292;48.800;9.216;2023-07-30T03:59:06;20.90;88.30
610;DHT22;292;48.800;9.216;2023-07-30T04:01:33;20.90;88.40
610;DHT22;292;48.800;9.216;2023-07-30T04:04:00;20.90;88.40
610;DHT22;292;48.800;9.216;2023-07-30T04:06:27;20.90;88.40
610;DHT22;292;48.800;9.216;2023-07-30T04:08:54;20.90;88.30
610;DHT22;292;48.800;9.216;2023-07-30T04:11:22;20.90;88.30
610;DHT22;292;48.800;9.216;2023-07-30T04:13:49;20.90;88.30
610;DHT22;292;48.800;9.216;2023-07-30T04:16:16;21.00;88.30
610;DHT22;292;48.800;9.216;2023-07-30T04:18:43;21.00;88.40
610;DHT22;292;48.800;9.216;2023-07-30T04:21:10;21.00;88.40
610;DHT22;292;48.800;9.216;2023-07-30T04:23:39;21.00;88.40
610;DHT22;292;48.800;9.216;2023-07-30T04:26:06;21.00;88.30
610;DHT22;292;48.800;9.216;2023-07-30T04:28:34;21.00;88.30
610;DHT22;292;48.800;9.216;2023-07-30T04:31:01;21.10;88.30
610;DHT22;292;48.800;9.216;2023-07-30T04:33:28;21.10;88.10
610;DHT22;292;48.800;9.216;2023-07-30T04:35:55;21.10;87.80
610;DHT22;292;48.800;9.216;2023-07-30T04:38:22;21.10;87.50
610;DHT22;292;48.800;9.216;2023-07-30T04:40:50;21.10;87.30
610;DHT22;292;48.800;9.216;2023-07-30T04:43:17;21.10;87.30
610;DHT22;292;48.800;9.216;2023-07-30T04:45:45;21.10;87.30
610;DHT22;292;48.800;9.216;2023-07-30T04:48:12;21.10;87.30
610;DHT22;292;48.800;9.216;2023-07-30T04:50:40;21.00;87.40
610;DHT22;292;48.800;9.216;2023-07-30T04:53:07;21.00;87.40
610;DHT22;292;48.800;9.216;2023-07-30T04:55:35;21.00;87.50
610;DHT22;292;48.800;9.216;2023-07-30T04:58:02;21.00;87.70
610;DHT22;292;48.800;9.216;2023-07-30T05:00:29;21.00;88.00
610;DHT22;292;48.800;9.216;2023-07-30T05:02:58;21.00;87.70
610;DHT22;292;48.800;9.216;2023-07-30T05:05:25;21.00;87.40
610;DHT22;292;48.800;9.216;2023-07-30T05:07:52;21.00;87.30
610;DHT22;292;48.800;9.216;2023-07-30T05:10:19;21.00;87.40
610;DHT22;292;48.800;9.216;2023-07-30T05:12:46;21.00;87.40
610;DHT22;292;48.800;9.216;2023-07-30T05:15:13;21.00;87.50
610;DHT22;292;48.800;9.216;2023-07-30T05:17:40;21.00;87.70
610;DHT22;292;48.800;9.216;2023-07-30T05:20:11;21.00;88.00
610;DHT22;292;48.800;9.216;2023-07-30T05:22:44;21.00;88.10
610;DHT22;292;48.800;9.216;2023-07-30T05:25:12;21.00;88.10
610;DHT22;292;48.800;9.216;2023-07-30T05:27:42;21.00;88.30
610;DHT22;292;48.800;9.216;2023-07-30T05:30:15;21.00;88.30
610;DHT22;292;48.800;9.216;2023-07-30T05:32:42;21.00;88.30
610;DHT22;292;48.800;9.216;2023-07-30T05:35:10;21.00;88.40
610;DHT22;292;48.800;9.216;2023-07-30T05:37:38;21.00;88.10
610;DHT22;292;48.800;9.216;2023-07-30T05:40:06;21.00;88.10
610;DHT22;292;48.800;9.216;2023-07-30T05:42:33;21.00;88.00
610;DHT22;292;48.800;9.216;2023-07-30T05:45:00;21.00;87.80
610;DHT22;292;48.800;9.216;2023-07-30T05:47:28;21.00;87.70
610;DHT22;292;48.800;9.216;2023-07-30T05:49:55;21.00;87.50
610;DHT22;292;48.800;9.216;2023-07-30T05:52:23;21.00;87.50
610;DHT22;292;48.800;9.216;2023-07-30T05:54:50;21.00;87.50
610;DHT22;292;48.800;9.216;2023-07-30T05:57:17;21.00;87.10
610;DHT22;292;48.800;9.216;2023-07-30T05:59:44;20.90;86.80
610;DHT22;292;48.800;9.216;2023-07-30T06:02:12;20.90;87.00
610;DHT22;292;48.800;9.216;2023-07-30T06:04:39;20.90;87.00
610;DHT22;292;48.800;9.216;2023-07-30T06:07:06;20.90;87.10
610;DHT22;292;48.800;9.216;2023-07-30T06:09:34;21.00;87.00
610;DHT22;292;48.800;9.216;2023-07-30T06:12:02;20.90;87.00
610;DHT22;292;48.800;9.216;2023-07-30T06:14:29;21.00;87.10
610;DHT22;292;48.800;9.216;2023-07-30T06:16:56;21.00;87.10
610;DHT22;292;48.800;9.216;2023-07-30T06:19:23;21.00;87.10
610;DHT22;292;48.800;9.216;2023-07-30T06:21:50;21.00;87.10
610;DHT22;292;48.800;9.216;2023-07-30T06:24:17;21.10;87.10
610;DHT22;292;48.800;9.216;2023-07-30T06:26:45;21.10;87.30
610;DHT22;292;48.800;9.216;2023-07-30T06:29:13;21.00;87.40
610;DHT22;292;48.800;9.216;2023-07-30T06:31:40;21.00;87.70
610;DHT22;292;48.800;9.216;2023-07-30T06:34:07;21.10;87.80
610;DHT22;292;48.800;9.216;2023-07-30T06:36:34;21.10;88.00
610;DHT22;292;48.800;9.216;2023-07-30T06:39:01;21.10;88.30
610;DHT22;292;48.800;9.216;2023-07-30T06:41:28;21.10;88.40
610;DHT22;292;48.800;9.216;2023-07-30T06:43:57;21.10;88.40
610;DHT22;292;48.800;9.216;2023-07-30T06:46:24;21.10;88.70
610;DHT22;292;48.800;9.216;2023-07-30T06:48:51;21.20;88.80
610;DHT22;292;48.800;9.216;2023-07-30T06:51:19;21.30;88.60
610;DHT22;292;48.800;9.216;2023-07-30T06:53:47;21.30;88.40
610;DHT22;292;48.800;9.216;2023-07-30T06:56:14;21.30;88.40
610;DHT22;292;48.800;9.216;2023-07-30T06:58:41;21.40;88.60
610;DHT22;292;48.800;9.216;2023-07-30T07:01:09;21.40;88.30
610;DHT22;292;48.800;9.216;2023-07-30T07:03:39;21.40;88.10
610;DHT22;292;48.800;9.216;2023-07-30T07:06:06;21.40;87.80
610;DHT22;292;48.800;9.216;2023-07-30T07:08:33;21.40;87.50
610;DHT22;292;48.800;9.216;2023-07-30T07:11:00;21.40;87.10
610;DHT22;292;48.800;9.216;2023-07-30T07:13:29;21.40;86.80
610;DHT22;292;48.800;9.216;2023-07-30T07:15:56;21.40;86.80
610;DHT22;292;48.800;9.216;2023-07-30T07:18:25;21.50;86.50
610;DHT22;292;48.800;9.216;2023-07-30T07:21:00;21.50;86.20
610;DHT22;292;48.800;9.216;2023-07-30T07:23:28;21.50;86.40
610;DHT22;292;48.800;9.216;2023-07-30T07:25:56;21.50;86.20
610;DHT22;292;48.800;9.216;2023-07-30T07:28:23;21.50;86.10
610;DHT22;292;48.800;9.216;2023-07-30T07:30:50;21.50;86.00
610;DHT22;292;48.800;9.216;2023-07-30T07:33:18;21.50;86.00
610;DHT22;292;48.800;9.216;2023-07-30T07:35:46;21.50;86.00
610;DHT22;292;48.800;9.216;2023-07-30T07:38:14;21.50;86.00
610;DHT22;292;48.800;9.216;2023-07-30T07:40:41;21.50;86.20
610;DHT22;292;48.800;9.216;2023-07-30T07:43:08;21.50;86.50
610;DHT22;292;48.800;9.216;2023-07-30T07:45:36;21.50;86.70
610;DHT22;292;48.800;9.216;2023-07-30T07:48:03;21.50;86.80
610;DHT22;292;48.800;9.216;2023-07-30T07:50:30;21.50;86.80
610;DHT22;292;48.800;9.216;2023-07-30T07:52:58;21.50;86.50
610;DHT22;292;48.800;9.216;2023-07-30T07:55:25;21.50;86.00
610;DHT22;292;48.800;9.216;2023-07-30T07:57:52;21.50;85.70
610;DHT22;292;48.800;9.216;2023-07-30T08:00:19;21.50;84.90
610;DHT22;292;48.800;9.216;2023-07-30T08:02:47;21.40;83.90
610;DHT22;292;48.800;9.216;2023-07-30T08:05:14;21.40;83.10
610;DHT22;292;48.800;9.216;2023-07-30T08:07:41;21.40;82.50
610;DHT22;292;48.800;9.216;2023-07-30T08:10:15;21.30;82.40
610;DHT22;292;48.800;9.216;2023-07-30T08:12:42;21.30;82.50
610;DHT22;292;48.800;9.216;2023-07-30T08:15:09;21.30;82.50
610;DHT22;292;48.800;9.216;2023-07-30T08:17:36;21.40;82.40
610;DHT22;292;48.800;9.216;2023-07-30T08:20:06;21.40;82.50
610;DHT22;292;48.800;9.216;2023-07-30T08:22:34;21.40;82.50
610;DHT22;292;48.800;9.216;2023-07-30T08:25:01;21.50;83.10
610;DHT22;292;48.800;9.216;2023-07-30T08:27:30;21.60;83.10
610;DHT22;292;48.800;9.216;2023-07-30T08:29:57;21.60;83.10
610;DHT22;292;48.800;9.216;2023-07-30T08:32:24;21.70;83.20
610;DHT22;292;48.800;9.216;2023-07-30T08:34:52;21.70;83.20
610;DHT22;292;48.800;9.216;2023-07-30T08:37:19;21.80;83.40
610;DHT22;292;48.800;9.216;2023-07-30T08:39:46;21.90;83.20
610;DHT22;292;48.800;9.216;2023-07-30T08:42:13;22.00;82.90
610;DHT22;292;48.800;9.216;2023-07-30T08:44:42;22.00;82.80
610;DHT22;292;48.800;9.216;2023-07-30T08:47:09;22.10;82.20
610;DHT22;292;48.800;9.216;2023-07-30T08:49:38;22.20;81.70
610;DHT22;292;48.800;9.216;2023-07-30T08:52:08;22.20;80.70
610;DHT22;292;48.800;9.216;2023-07-30T08:54:37;22.20;80.60
610;DHT22;292;48.800;9.216;2023-07-30T08:57:05;22.30;80.40
610;DHT22;292;48.800;9.216;2023-07-30T08:59:37;22.40;80.10
610;DHT22;292;48.800;9.216;2023-07-30T09:02:11;22.50;80.00
610;DHT22;292;48.800;9.216;2023-07-30T09:04:41;22.50;79.90
610;DHT22;292;48.800;9.216;2023-07-30T09:07:11;22.60;79.30
610;DHT22;292;48.800;9.216;2023-07-30T09:09:39;22.60;78.60
610;DHT22;292;48.800;9.216;2023-07-30T09:12:15;22.70;78.30
610;DHT22;292;48.800;9.216;2023-07-30T09:14:43;22.80;77.80
610;DHT22;292;48.800;9.216;2023-07-30T09:17:16;22.80;77.30
610;DHT22;292;48.800;9.216;2023-07-30T09:19:46;22.80;76.80
610;DHT22;292;48.800;9.216;2023-07-30T09:22:20;22.80;76.50
610;DHT22;292;48.800;9.216;2023-07-30T09:24:47;22.90;74.20
610;DHT22;292;48.800;9.216;2023-07-30T09:27:14;22.90;72.90
610;DHT22;292;48.800;9.216;2023-07-30T09:29:50;22.90;72.50
610;DHT22;292;48.800;9.216;2023-07-30T09:32:19;22.80;72.10
610;DHT22;292;48.800;9.216;2023-07-30T09:34:46;22.80;71.50
610;DHT22;292;48.800;9.216;2023-07-30T09:37:14;22.80;71.60
610;DHT22;292;48.800;9.216;2023-07-30T09:39:41;22.80;70.80
610;DHT22;292;48.800;9.216;2023-07-30T09:42:08;22.80;70.20
610;DHT22;292;48.800;9.216;2023-07-30T09:44:38;22.70;70.30
610;DHT22;292;48.800;9.216;2023-07-30T09:47:09;22.70;70.60
610;DHT22;292;48.800;9.216;2023-07-30T09:49:38;22.60;70.20
610;DHT22;292;48.800;9.216;2023-07-30T09:52:06;22.60;70.20
610;DHT22;292;48.800;9.216;2023-07-30T09:54:33;22.60;69.90
610;DHT22;292;48.800;9.216;2023-07-30T09:57:01;22.50;69.90
610;DHT22;292;48.800;9.216;2023-07-30T09:59:29;22.50;69.80
610;DHT22;292;48.800;9.216;2023-07-30T10:01:57;22.50;69.60
610;DHT22;292;48.800;9.216;2023-07-30T10:04:26;22.40;69.90
610;DHT22;292;48.800;9.216;2023-07-30T10:07:03;22.40;70.20
610;DHT22;292;48.800;9.216;2023-07-30T10:09:35;22.50;69.90
610;DHT22;292;48.800;9.216;2023-07-30T10:12:09;22.50;69.80
610;DHT22;292;48.800;9.216;2023-07-30T10:14:39;22.50;68.60
610;DHT22;292;48.800;9.216;2023-07-30T10:17:10;22.50;68.20
610;DHT22;292;48.800;9.216;2023-07-30T10:19:37;22.60;67.90
610;DHT22;292;48.800;9.216;2023-07-30T10:22:20;22.60;66.20
610;DHT22;292;48.800;9.216;2023-07-30T10:24:56;22.70;66.20
610;DHT22;292;48.800;9.216;2023-07-30T10:27:24;22.80;65.40
610;DHT22;292;48.800;9.216;2023-07-30T10:30:08;22.80;64.30
610;DHT22;292;48.800;9.216;2023-07-30T10:32:39;22.90;63.30
610;DHT22;292;48.800;9.216;2023-07-30T10:35:07;22.90;62.80
610;DHT22;292;48.800;9.216;2023-07-30T10:37:45;22.90;62.30
610;DHT22;292;48.800;9.216;2023-07-30T10:40:16;22.90;62.30
610;DHT22;292;48.800;9.216;2023-07-30T10:42:44;22.90;62.00
610;DHT22;292;48.800;9.216;2023-07-30T10:45:11;22.90;61.10
610;DHT22;292;48.800;9.216;2023-07-30T10:47:41;22.90;61.10
610;DHT22;292;48.800;9.216;2023-07-30T10:50:08;23.00;61.00
610;DHT22;292;48.800;9.216;2023-07-30T10:52:47;23.00;61.70
610;DHT22;292;48.800;9.216;2023-07-30T10:55:14;23.10;62.00
610;DHT22;292;48.800;9.216;2023-07-30T10:57:42;23.30;61.50
610;DHT22;292;48.800;9.216;2023-07-30T11:00:11;23.40;61.40
610;DHT22;292;48.800;9.216;2023-07-30T11:02:38;23.40;61.20
610;DHT22;292;48.800;9.216;2023-07-30T11:05:12;23.50;61.00
610;DHT22;292;48.800;9.216;2023-07-30T11:07:49;23.60;60.80
610;DHT22;292;48.800;9.216;2023-07-30T11:10:17;23.70;59.20
610;DHT22;292;48.800;9.216;2023-07-30T11:12:44;23.70;58.80
610;DHT22;292;48.800;9.216;2023-07-30T11:15:11;23.80;57.80
610;DHT22;292;48.800;9.216;2023-07-30T11:17:38;23.70;58.00
610;DHT22;292;48.800;9.216;2023-07-30T11:20:06;23.70;58.10
610;DHT22;292;48.800;9.216;2023-07-30T11:22:35;23.60;57.00
610;DHT22;292;48.800;9.216;2023-07-30T11:25:16;23.50;57.20
610;DHT22;292;48.800;9.216;2023-07-30T11:27:46;23.50;57.20
610;DHT22;292;48.800;9.216;2023-07-30T11:30:13;23.40;57.70
610;DHT22;292;48.800;9.216;2023-07-30T11:32:41;23.40;57.80
610;DHT22;292;48.800;9.216;2023-07-30T11:35:11;23.40;57.80
610;DHT22;292;48.800;9.216;2023-07-30T11:37:39;23.30;58.10
610;DHT22;292;48.800;9.216;2023-07-30T11:40:10;23.30;58.90
610;DHT22;292;48.800;9.216;2023-07-30T11:42:38;23.30;60.00
610;DHT22;292;48.800;9.216;2023-07-30T11:45:17;23.20;60.40
610;DHT22;292;48.800;9.216;2023-07-30T11:47:46;23.20;61.20
610;DHT22;292;48.800;9.216;2023-07-30T11:50:16;23.20;61.70
610;DHT22;292;48.800;9.216;2023-07-30T11:52:53;23.20;60.80
610;DHT22;292;48.800;9.216;2023-07-30T11:55:23;23.10;61.40
610;DHT22;292;48.800;9.216;2023-07-30T11:57:51;23.10;61.00
610;DHT22;292;48.800;9.216;2023-07-30T12:00:21;23.00;60.40
610;DHT22;292;48.800;9.216;2023-07-30T12:02:48;23.00;61.00
610;DHT22;292;48.800;9.216;2023-07-30T12:05:18;23.00;61.00
610;DHT22;292;48.800;9.216;2023-07-30T12:07:47;23.00;60.40
610;DHT22;292;48.800;9.216;2023-07-30T12:10:16;23.00;60.10
610;DHT22;292;48.800;9.216;2023-07-30T12:12:45;23.10;59.80
610;DHT22;292;48.800;9.216;2023-07-30T12:15:13;23.20;59.80
610;DHT22;292;48.800;9.216;2023-07-30T12:17:40;23.20;59.40
610;DHT22;292;48.800;9.216;2023-07-30T12:20:08;23.30;59.30
610;DHT22;292;48.800;9.216;2023-07-30T12:22:35;23.30;59.20
610;DHT22;292;48.800;9.216;2023-07-30T12:25:05;23.40;59.40
610;DHT22;292;48.800;9.216;2023-07-30T12:27:33;23.40;59.80
610;DHT22;292;48.800;9.216;2023-07-30T12:30:12;23.50;59.60
610;DHT22;292;48.800;9.216;2023-07-30T12:32:39;23.60;59.20
610;DHT22;292;48.800;9.216;2023-07-30T12:35:07;23.70;59.00
610;DHT22;292;48.800;9.216;2023-07-30T12:37:34;23.70;58.60
610;DHT22;292;48.800;9.216;2023-07-30T12:40:02;23.80;58.60
610;DHT22;292;48.800;9.216;2023-07-30T12:42:30;23.90;58.10
610;DHT22;292;48.800;9.216;2023-07-30T12:44:57;23.90;58.10
610;DHT22;292;48.800;9.216;2023-07-30T12:47:26;23.90;58.50
610;DHT22;292;48.800;9.216;2023-07-30T12:49:53;23.90;58.50
610;DHT22;292;48.800;9.216;2023-07-30T12:52:20;23.90;58.50
610;DHT22;292;48.800;9.216;2023-07-30T12:54:49;23.90;58.80
610;DHT22;292;48.800;9.216;2023-07-30T12:57:16;23.90;58.90
610;DHT22;292;48.800;9.216;2023-07-30T12:59:43;23.90;58.50
610;DHT22;292;48.800;9.216;2023-07-30T13:02:10;23.90;57.70
610;DHT22;292;48.800;9.216;2023-07-30T13:04:39;23.90;56.80
610;DHT22;292;48.800;9.216;2023-07-30T13:07:06;23.90;56.80
610;DHT22;292;48.800;9.216;2023-07-30T13:09:33;23.90;56.40
610;DHT22;292;48.800;9.216;2023-07-30T13:12:00;23.80;55.40
610;DHT22;292;48.800;9.216;2023-07-30T13:14:27;23.80;55.40
610;DHT22;292;48.800;9.216;2023-07-30T13:16:54;23.80;55.20
610;DHT22;292;48.800;9.216;2023-07-30T13:19:21;23.80;55.40
610;DHT22;292;48.800;9.216;2023-07-30T13:21:50;23.90;55.40
610;DHT22;292;48.800;9.216;2023-07-30T13:24:17;24.00;55.40
610;DHT22;292;48.800;9.216;2023-07-30T13:26:44;24.00;55.30
610;DHT22;292;48.800;9.216;2023-07-30T13:29:11;24.10;55.20
610;DHT22;292;48.800;9.216;2023-07-30T13:31:38;24.20;55.20
610;DHT22;292;48.800;9.216;2023-07-30T13:34:05;24.30;54.60
610;DHT22;292;48.800;9.216;2023-07-30T13:36:32;24.40;54.60
610;DHT22;292;48.800;9.216;2023-07-30T13:39:00;24.60;53.40
610;DHT22;292;48.800;9.216;2023-07-30T13:41:27;24.70;52.40
610;DHT22;292;48.800;9.216;2023-07-30T13:43:54;24.70;52.20
610;DHT22;292;48.800;9.216;2023-07-30T13:46:22;24.70;52.20
610;DHT22;292;48.800;9.216;2023-07-30T13:48:49;24.80;51.60
610;DHT22;292;48.800;9.216;2023-07-30T13:51:16;24.80;51.80
610;DHT22;292;48.800;9.216;2023-07-30T13:53:43;24.80;51.80
610;DHT22;292;48.800;9.216;2023-07-30T13:56:11;24.80;51.70
610;DHT22;292;48.800;9.216;2023-07-30T13:58:38;24.90;51.70
610;DHT22;292;48.800;9.216;2023-07-30T14:01:06;25.00;50.90
610;DHT22;292;48.800;9.216;2023-07-30T14:03:35;25.00;50.80
610;DHT22;292;48.800;9.216;2023-07-30T14:06:02;25.00;51.60
610;DHT22;292;48.800;9.216;2023-07-30T14:08:29;25.10;51.20
610;DHT22;292;48.800;9.216;2023-07-30T14:10:56;25.20;50.90
610;DHT22;292;48.800;9.216;2023-07-30T14:13:27;25.20;50.50
610;DHT22;292;48.800;9.216;2023-07-30T14:15:54;25.10;50.40
610;DHT22;292;48.800;9.216;2023-07-30T14:18:21;25.10;50.50
610;DHT22;292;48.800;9.216;2023-07-30T14:20:48;25.00;50.10
610;DHT22;292;48.800;9.216;2023-07-30T14:23:15;24.90;50.20
610;DHT22;292;48.800;9.216;2023-07-30T14:25:41;24.80;50.60
610;DHT22;292;48.800;9.216;2023-07-30T14:28:08;24.70;50.80
610;DHT22;292;48.800;9.216;2023-07-30T14:30:37;24.60;50.40
610;DHT22;292;48.800;9.216;2023-07-30T14:33:09;24.50;50.50
610;DHT22;292;48.800;9.216;2023-07-30T14:35:36;24.50;50.90
610;DHT22;292;48.800;9.216;2023-07-30T14:38:04;24.50;50.20
610;DHT22;292;48.800;9.216;2023-07-30T14:40:31;24.50;50.00
610;DHT22;292;48.800;9.216;2023-07-30T14:42:59;24.50;50.10
610;DHT22;292;48.800;9.216;2023-07-30T14:45:26;24.40;50.10
610;DHT22;292;48.800;9.216;2023-07-30T14:47:54;24.40;50.60
610;DHT22;292;48.800;9.216;2023-07-30T14:50:22;24.50;50.80
610;DHT22;292;48.800;9.216;2023-07-30T14:52:49;24.60;50.60
610;DHT22;292;48.800;9.216;2023-07-30T14:55:16;24.70;49.80
610;DHT22;292;48.800;9.216;2023-07-30T14:57:44;24.80;49.40
610;DHT22;292;48.800;9.216;2023-07-30T15:00:11;24.80;49.20
610;DHT22;292;48.800;9.216;2023-07-30T15:02:42;24.90;48.80
610;DHT22;292;48.800;9.216;2023-07-30T15:05:11;24.90;48.60
610;DHT22;292;48.800;9.216;2023-07-30T15:07:38;24.90;47.40
610;DHT22;292;48.800;9.216;2023-07-30T15:10:06;24.80;47.40
610;DHT22;292;48.800;9.216;2023-07-30T15:12:34;24.70;46.00
610;DHT22;292;48.800;9.216;2023-07-30T15:15:01;24.60;46.40
610;DHT22;292;48.800;9.216;2023-07-30T15:17:28;24.60;46.40
610;DHT22;292;48.800;9.216;2023-07-30T15:19:55;24.60;46.40
610;DHT22;292;48.800;9.216;2023-07-30T15:22:26;24.70;46.90
610;DHT22;292;48.800;9.216;2023-07-30T15:24:53;24.80;47.00
610;DHT22;292;48.800;9.216;2023-07-30T15:27:20;25.00;46.40
610;DHT22;292;48.800;9.216;2023-07-30T15:29:47;25.00;46.50
610;DHT22;292;48.800;9.216;2023-07-30T15:32:14;25.10;46.50
610;DHT22;292;48.800;9.216;2023-07-30T15:34:41;25.10;45.70
610;DHT22;292;48.800;9.216;2023-07-30T15:37:08;25.10;46.00
610;DHT22;292;48.800;9.216;2023-07-30T15:39:37;25.10;46.60
610;DHT22;292;48.800;9.216;2023-07-30T15:42:05;25.20;46.20
610;DHT22;292;48.800;9.216;2023-07-30T15:44:32;25.30;45.80
610;DHT22;292;48.800;9.216;2023-07-30T15:46:59;25.40;44.10
610;DHT22;292;48.800;9.216;2023-07-30T15:49:26;25.40;43.40
610;DHT22;292;48.800;9.216;2023-07-30T15:51:53;25.40;43.40
610;DHT22;292;48.800;9.216;2023-07-30T15:54:31;25.40;43.60
610;DHT22;292;48.800;9.216;2023-07-30T15:56:59;25.40;42.20
610;DHT22;292;48.800;9.216;2023-07-30T15:59:26;25.30;42.20
610;DHT22;292;48.800;9.216;2023-07-30T16:01:53;25.20;42.60
610;DHT22;292;48.800;9.216;2023-07-30T16:04:22;25.20;43.30
610;DHT22;292;48.800;9.216;2023-07-30T16:06:49;25.30;42.90
610;DHT22;292;48.800;9.216;2023-07-30T16:09:16;25.30;42.50
610;DHT22;292;48.800;9.216;2023-07-30T16:11:43;25.30;41.70
610;DHT22;292;48.800;9.216;2023-07-30T16:14:12;25.20;41.70
610;DHT22;292;48.800;9.216;2023-07-30T16:16:39;25.20;42.00
610;DHT22;292;48.800;9.216;2023-07-30T16:19:07;25.10;42.40
610;DHT22;292;48.800;9.216;2023-07-30T16:21:34;25.10;42.60
610;DHT22;292;48.800;9.216;2023-07-30T16:24:02;25.10;42.80
610;DHT22;292;48.800;9.216;2023-07-30T16:26:29;25.20;42.40
610;DHT22;292;48.800;9.216;2023-07-30T16:28:56;25.20;42.00
610;DHT22;292;48.800;9.216;2023-07-30T16:31:24;25.20;42.20
610;DHT22;292;48.800;9.216;2023-07-30T16:33:52;25.20;42.40
610;DHT22;292;48.800;9.216;2023-07-30T16:36:19;25.20;41.80
610;DHT22;292;48.800;9.216;2023-07-30T16:38:46;25.20;41.30